Sunday, September 23, 2018, 1:03 AM EDT
Back to Local

KIAG, Niagara Falls International Airport

Location: Niagara Falls, NY, United States Lat: 43.117
Local Time: 1:03 AM EDT ( 5:03 GMT) Lon: -78.933
Time Zone: US/Eastern Elev: 583 ft

Show me the last for .
Show Decoded

2018-09-23 00:53 METAR KIAG 230453Z AUTO 00000KT 10SM CLR 07/06 A3024 RMK AO2 SLP246 T00720056
                 401610067 =
2018-09-22 23:53 METAR KIAG 230353Z AUTO 00000KT 10SM CLR 09/06 A3025 RMK AO2 SLP247 T00890061 =
2018-09-22 22:53 METAR KIAG 230253Z 00000KT 10SM CLR 09/07 A3024 RMK AO2 SLP244 T00940067 58003 =
2018-09-22 21:53 METAR KIAG 230153Z 00000KT 10SM CLR 09/07 A3025 RMK AO2 SLP247 T00940067 =
2018-09-22 20:53 METAR KIAG 230053Z 00000KT 10SM CLR 10/07 A3025 RMK AO2 SLP248 T01000067 =
2018-09-22 19:53 METAR KIAG 222353Z 00000KT 10SM CLR 11/07 A3025 RMK AO2 SLP247 T01110067 10150
                 20111 55004 =
2018-09-22 18:53 METAR KIAG 222253Z 02003KT 10SM CLR 12/06 A3025 RMK AO2 SLP246 T01220061 =
2018-09-22 17:53 METAR KIAG 222153Z 35005KT 10SM CLR 13/06 A3025 RMK AO2 SLP249 T01280061 =
2018-09-22 16:53 METAR KIAG 222053Z 33003KT 10SM CLR 14/06 A3026 RMK AO2 SLP249 T01390061 55008 =
2018-09-22 15:53 METAR KIAG 221953Z 03006KT 10SM CLR 14/06 A3025 RMK AO2 SLP248 T01440061 =
2018-09-22 14:53 METAR KIAG 221853Z VRB04KT 10SM SCT035 14/06 A3027 RMK AO2 SLP252 T01440061 =
2018-09-22 13:53 METAR KIAG 221753Z 02008KT 10SM SCT032 14/06 A3028 RMK AO2 SLP257 T01390056
                 10150 20122 58002 =
2018-09-22 12:53 METAR KIAG 221653Z 04008KT 10SM BKN031 14/06 A3029 RMK AO2 SLP260 T01390061 =
2018-09-22 11:53 METAR KIAG 221553Z 04010KT 10SM BKN029 14/06 A3030 RMK AO2 SLP262 T01390061 =
2018-09-22 11:00 METAR KIAG 221500Z 02014KT 10SM OVC029 13/07 A3029 RMK AO2 T01280067 =
2018-09-22 10:53 METAR KIAG 221453Z 01013G17KT 10SM BKN033 13/07 A3029 RMK AO2 SLP257 T01330067
                 51013 =
2018-09-22 09:53 METAR KIAG 221353Z 01012KT 10SM BKN033 13/07 A3027 RMK AO2 SLP251 T01330067 =
2018-09-22 08:53 METAR KIAG 221253Z 01012KT 10SM OVC035 12/06 A3026 RMK AO2 SLP248 T01220061 =
2018-09-22 07:53 METAR KIAG 221153Z 36007KT 10SM OVC032 12/06 A3025 RMK AO2 SLP243 70003
                 T01220061 10144 20122 51029 =
2018-09-22 06:53 METAR KIAG 221053Z 34006KT 10SM OVC032 13/07 A3022 RMK AO2 SLP233 T01280067 =
2018-09-22 05:53 METAR KIAG 220953Z AUTO 34008KT 10SM OVC036 13/07 A3019 RMK AO2 SLP220 T01280072
                 =
2018-09-22 04:53 METAR KIAG 220853Z AUTO 32011G18KT 10SM OVC036 13/07 A3016 RMK AO2 SLP209
                 T01330067 51030 =
2018-09-22 03:53 METAR KIAG 220753Z AUTO 32012G21KT 10SM FEW034 13/06 A3013 RMK AO2 SLP199
                 T01280061 =
2018-09-22 02:53 METAR KIAG 220653Z AUTO 33018G27KT 10SM BKN034 14/07 A3011 RMK AO2 PK WND
                 34027/0651 SLP190 T01390067 =
2018-09-22 01:53 METAR KIAG 220553Z AUTO 30018G25KT 10SM CLR 14/07 A3007 RMK AO2 PK WND
                 31029/0530 SLP178 T01390067 10250 20139 51041 =

Support USWX by starting your Amazon purchase here.